Richfield, Minnesota
Current Conditions -  °F | °C
As of 2:53 AM on Monday 20 Oct 2014 (Local Time) from KMSP Reporting Station
Few Clouds Few Clouds  
Wind Chill: 46°   Ceiling: Unl
Heat Index: 49°   Visibility: 10mi
Dew Point: 41°   Wind: 7mph
Humidity: 74%   Direction: 300°WNW
Pressure: 29.91"   Gusts: NA
Location:  44.88°N, 93.27°W
Report Text: KMSP 200753Z 30006KT 10SM FEW050 09/05 A2991 RMK AO2 SLP128 T00940050
Loading
Personal Weather Stations






























Interactive Weather Map
Tropical Storm Tracking
New forecast layout! Learn more

10-Day Weather Forecast

Advertisements
Track Severe Weather on mobile